Terminal Aerodrome Forecast
Issued by NWS Twin Cities, MN

Home | Current Version | Previous Version | Text Only | Print | Product List | Glossary On
Versions: 1 2 3 4 5 6 7 8 9 10 11 12 13 14 15 16 17 18 19 20 21 22 23 24 25 26 27 28 29 30 31
000
FTUS43 KMPX 040520
TAFMSP
TAF
KMSP 040520Z 0406/0512 30014G20KT P6SM FEW020
     FM041200 28008KT P6SM FEW250
     FM041600 29015G22KT P6SM SCT040 SCT250
     FM050200 30008KT P6SM FEW250=

USA.gov is the U.S. government's official web portal to all federal, state and local government web resources and services.